createdAt,value
2018-06-17T00:01:17.920Z,63.60
2018-06-17T00:03:22.393Z,63.80
2018-06-17T00:05:26.883Z,63.70
2018-06-17T00:07:31.375Z,63.80
2018-06-17T00:09:35.847Z,63.90
2018-06-17T00:11:40.326Z,63.80
2018-06-17T00:13:44.761Z,63.80
2018-06-17T00:15:49.228Z,63.80
2018-06-17T00:17:53.692Z,63.80
2018-06-17T00:19:58.151Z,63.70
2018-06-17T00:22:03.372Z,63.70
2018-06-17T00:24:08.010Z,63.70
2018-06-17T00:26:12.412Z,63.70
2018-06-17T00:28:17.490Z,64.60
2018-06-17T00:30:21.974Z,63.70
2018-06-17T00:32:26.617Z,63.70
2018-06-17T00:34:31.108Z,63.70
2018-06-17T00:36:35.608Z,63.70
2018-06-17T00:38:40.062Z,63.70
2018-06-17T00:40:44.572Z,63.60
2018-06-17T00:42:49.054Z,63.40
2018-06-17T00:44:53.503Z,63.40
2018-06-17T00:46:57.966Z,63.40
2018-06-17T00:49:02.437Z,63.20
2018-06-17T00:51:06.956Z,63.50
2018-06-17T00:55:15.756Z,63.70
2018-06-17T00:57:37.719Z,62.60
2018-06-17T00:59:42.260Z,62.60
2018-06-17T01:01:52.112Z,62.80
2018-06-17T01:03:59.704Z,63.00
2018-06-17T01:06:05.541Z,62.80
2018-06-17T01:08:12.058Z,62.60
2018-06-17T01:10:21.364Z,62.70
2018-06-17T01:12:28.210Z,62.60
2018-06-17T01:14:35.908Z,62.60
2018-06-17T01:16:43.475Z,62.60
2018-06-17T01:18:51.257Z,62.60
2018-06-17T01:20:58.160Z,62.60
2018-06-17T01:23:05.298Z,62.50
2018-06-17T01:25:12.891Z,62.50
2018-06-17T01:27:20.778Z,62.50
2018-06-17T01:29:28.588Z,62.50
2018-06-17T01:31:35.801Z,63.10
2018-06-17T01:33:43.068Z,62.50
2018-06-17T01:35:49.186Z,62.50
2018-06-17T01:37:57.528Z,62.50
2018-06-17T01:40:04.175Z,62.30
2018-06-17T01:42:11.502Z,62.30
2018-06-17T01:44:19.527Z,62.30
2018-06-17T01:46:26.956Z,62.30
2018-06-17T01:48:35.993Z,63.10
2018-06-17T01:50:42.766Z,62.20
2018-06-17T01:52:51.033Z,62.10
2018-06-17T01:54:55.778Z,62.60
2018-06-17T01:57:02.168Z,62.10
2018-06-17T01:59:10.677Z,62.20
2018-06-17T02:01:15.248Z,62.10
2018-06-17T02:03:27.061Z,62.20
2018-06-17T02:05:37.939Z,62.20
2018-06-17T02:07:48.813Z,62.30
2018-06-17T02:10:00.948Z,62.40
2018-06-17T02:12:11.886Z,62.50
2018-06-17T02:14:24.568Z,62.20
2018-06-17T02:16:32.081Z,62.80
2018-06-17T02:18:37.369Z,62.10
2018-06-17T02:22:46.110Z,62.10
2018-06-17T02:24:50.621Z,61.80
2018-06-17T02:26:55.027Z,61.80
2018-06-17T02:28:59.437Z,61.90
2018-06-17T02:31:03.903Z,61.90
2018-06-17T02:33:08.353Z,61.90
2018-06-17T02:35:12.823Z,61.80
2018-06-17T02:39:22.485Z,61.80
2018-06-17T02:41:26.946Z,61.80
2018-06-17T02:43:31.341Z,61.90
2018-06-17T02:46:39.830Z,61.70
2018-06-17T02:48:49.492Z,61.70
2018-06-17T02:50:59.164Z,61.40
2018-06-17T02:53:09.003Z,61.40
2018-06-17T02:55:13.462Z,61.40
2018-06-17T02:57:19.821Z,61.50
2018-06-17T02:59:24.242Z,61.50
2018-06-17T03:01:28.724Z,61.50
2018-06-17T03:03:33.146Z,61.50
2018-06-17T03:05:38.685Z,61.50
2018-06-17T03:07:43.107Z,61.50
2018-06-17T03:09:47.531Z,61.50
2018-06-17T03:11:51.938Z,62.20
2018-06-17T03:13:56.362Z,61.40
2018-06-17T03:16:00.771Z,61.50
2018-06-17T03:20:09.366Z,61.70
2018-06-17T03:22:14.640Z,61.70
2018-06-17T03:24:23.218Z,61.70
2018-06-17T03:26:34.027Z,61.90
2018-06-17T03:28:43.929Z,62.10
2018-06-17T03:30:53.640Z,62.10
2018-06-17T03:33:04.740Z,62.10
2018-06-17T03:35:14.514Z,62.30
2018-06-17T03:37:19.673Z,62.70
2018-06-17T03:39:24.071Z,62.80
2018-06-17T03:41:28.581Z,62.90
2018-06-17T03:43:32.969Z,63.00
2018-06-17T03:45:37.428Z,63.80
2018-06-17T03:47:43.039Z,63.40
2018-06-17T03:49:47.611Z,63.60
2018-06-17T03:51:52.268Z,63.70
2018-06-17T03:53:56.698Z,63.90
2018-06-17T03:56:01.320Z,64.00
2018-06-17T03:58:05.813Z,64.00
2018-06-17T04:00:09.968Z,64.00
2018-06-17T04:02:17.363Z,64.10
2018-06-17T04:04:25.217Z,64.10
2018-06-17T04:06:33.393Z,64.20
2018-06-17T04:08:42.795Z,64.30
2018-06-17T04:10:49.567Z,64.40
2018-06-17T04:12:55.901Z,64.50
2018-06-17T04:15:04.973Z,64.70
2018-06-17T04:17:15.362Z,64.80
2018-06-17T04:19:22.845Z,65.00
2018-06-17T04:21:27.330Z,65.20
2018-06-17T04:23:31.852Z,64.50
2018-06-17T04:25:37.324Z,65.30
2018-06-17T04:27:44.171Z,65.50
2018-06-17T04:29:48.621Z,65.60
2018-06-17T04:31:53.127Z,65.70
2018-06-17T04:33:57.545Z,65.80
2018-06-17T04:36:02.360Z,66.00
2018-06-17T04:38:06.838Z,65.90
2018-06-17T04:40:11.332Z,65.90
2018-06-17T04:42:15.774Z,65.90
2018-06-17T04:44:20.396Z,65.90
2018-06-17T04:46:24.882Z,65.90
2018-06-17T04:48:29.341Z,66.00
2018-06-17T04:50:33.752Z,66.00
2018-06-17T04:52:38.159Z,66.00
2018-06-17T04:54:42.571Z,66.00
2018-06-17T04:56:47.722Z,66.10
2018-06-17T04:58:52.211Z,66.10
2018-06-17T05:00:56.705Z,66.10
2018-06-17T05:03:01.098Z,66.40
2018-06-17T05:05:06.522Z,66.50
2018-06-17T05:07:11.271Z,66.20
2018-06-17T05:09:15.778Z,66.40
2018-06-17T05:11:20.186Z,66.70
2018-06-17T05:13:24.615Z,66.80
2018-06-17T05:15:29.107Z,66.70
2018-06-17T05:17:33.544Z,66.90
2018-06-17T05:19:37.996Z,67.10
2018-06-17T05:21:42.493Z,67.30
2018-06-17T05:23:46.919Z,67.10
2018-06-17T05:25:51.368Z,67.20
2018-06-17T05:27:55.821Z,67.30
2018-06-17T05:30:00.233Z,67.50
2018-06-17T05:32:04.755Z,67.30
2018-06-17T05:34:09.268Z,67.20
2018-06-17T05:36:13.810Z,67.40
2018-06-17T05:38:18.238Z,67.40
2018-06-17T05:40:23.143Z,67.70
2018-06-17T05:42:27.646Z,67.70
2018-06-17T05:44:32.110Z,68.70
2018-06-17T05:46:37.047Z,67.90
2018-06-17T05:48:43.193Z,67.70
2018-06-17T05:50:47.739Z,67.60
2018-06-17T05:52:52.266Z,67.50
2018-06-17T05:54:56.687Z,67.10
2018-06-17T05:57:01.227Z,67.20
2018-06-17T06:01:10.735Z,67.20
2018-06-17T06:03:15.896Z,67.30
2018-06-17T06:05:20.354Z,67.30
2018-06-17T06:07:24.791Z,67.50
2018-06-17T06:09:29.337Z,67.40
2018-06-17T06:11:33.831Z,66.80
2018-06-17T06:13:38.344Z,66.60
2018-06-17T06:19:51.661Z,66.70
2018-06-17T06:21:56.197Z,66.30
2018-06-17T06:24:00.661Z,66.40
2018-06-17T06:26:05.095Z,66.30
2018-06-17T06:28:09.596Z,65.60
2018-06-17T06:30:14.030Z,65.40
2018-06-17T06:32:18.551Z,65.30
2018-06-17T06:34:22.979Z,65.30
2018-06-17T06:36:28.309Z,65.40
2018-06-17T06:38:32.843Z,64.90
2018-06-17T06:40:37.939Z,65.30
2018-06-17T06:42:42.425Z,65.00
2018-06-17T06:44:46.955Z,65.10
2018-06-17T06:46:51.440Z,65.10
2018-06-17T06:48:55.891Z,64.50
2018-06-17T06:51:00.904Z,64.20
2018-06-17T06:53:05.520Z,63.80
2018-06-17T06:55:11.729Z,63.00
2018-06-17T06:57:16.190Z,62.50
2018-06-17T06:59:20.660Z,62.60
2018-06-17T07:01:42.050Z,62.80
2018-06-17T07:04:03.680Z,62.10
2018-06-17T07:06:25.066Z,62.10
2018-06-17T07:08:46.439Z,61.40
2018-06-17T07:10:50.894Z,61.40
2018-06-17T07:12:55.453Z,61.40
2018-06-17T07:14:59.901Z,61.50
2018-06-17T07:17:21.447Z,62.00
2018-06-17T07:19:26.037Z,61.90
2018-06-17T07:21:30.495Z,61.60
2018-06-17T07:23:34.984Z,60.90
2018-06-17T07:26:57.552Z,60.80
2018-06-17T07:29:20.710Z,60.70
2018-06-17T07:31:25.183Z,60.60
2018-06-17T07:33:29.615Z,60.70
2018-06-17T07:35:34.084Z,60.60
2018-06-17T07:37:38.541Z,60.20
2018-06-17T07:40:27.203Z,60.70
2018-06-17T07:44:35.757Z,61.00
2018-06-17T07:46:40.354Z,59.80
2018-06-17T07:49:59.617Z,60.60
2018-06-17T07:52:21.735Z,59.80
2018-06-17T07:54:26.253Z,59.60
2018-06-17T07:56:31.139Z,59.30
2018-06-17T07:58:41.413Z,59.50
2018-06-17T08:00:49.730Z,59.20
2018-06-17T08:02:57.606Z,59.10
2018-06-17T08:05:02.925Z,58.80
2018-06-17T08:07:15.537Z,58.80
2018-06-17T08:09:27.100Z,58.60
2018-06-17T08:11:31.568Z,58.80
2018-06-17T08:13:35.980Z,58.40
2018-06-17T08:15:40.444Z,58.70
2018-06-17T08:17:44.903Z,57.90
2018-06-17T08:19:49.354Z,57.90
2018-06-17T08:21:54.331Z,57.70
2018-06-17T08:23:59.330Z,57.90
2018-06-17T08:26:03.865Z,57.40
2018-06-17T08:28:08.397Z,58.00
2018-06-17T08:30:12.833Z,58.20
2018-06-17T08:32:17.307Z,57.90
2018-06-17T08:34:21.938Z,57.60
2018-06-17T08:36:27.485Z,58.30
2018-06-17T08:38:32.015Z,57.50
2018-06-17T08:40:37.055Z,57.10
2018-06-17T08:42:41.552Z,56.60
2018-06-17T08:44:46.007Z,56.60
2018-06-17T08:46:50.994Z,56.30
2018-06-17T08:48:55.407Z,56.30
2018-06-17T08:50:59.836Z,56.70
2018-06-17T08:53:04.247Z,57.00
2018-06-17T08:55:09.626Z,56.30
2018-06-17T08:57:14.061Z,56.00
2018-06-17T08:59:18.606Z,55.50
2018-06-17T09:01:23.411Z,55.20
2018-06-17T09:05:32.771Z,55.10
2018-06-17T09:07:37.215Z,55.60
2018-06-17T09:09:42.395Z,55.00
2018-06-17T09:11:48.338Z,55.50
2018-06-17T09:13:54.442Z,54.80
2018-06-17T09:15:58.970Z,55.00
2018-06-17T09:18:05.274Z,55.00
2018-06-17T09:20:09.864Z,55.60
2018-06-17T09:22:15.194Z,54.90
2018-06-17T09:24:20.112Z,55.00
2018-06-17T09:26:26.995Z,54.70
2018-06-17T09:28:32.681Z,54.50
2018-06-17T09:30:44.849Z,54.70
2018-06-17T09:32:49.960Z,54.90
2018-06-17T09:34:54.762Z,55.20
2018-06-17T09:36:59.535Z,54.40
2018-06-17T09:39:05.203Z,54.20
2018-06-17T09:43:14.309Z,54.00
2018-06-17T09:45:18.895Z,53.50
2018-06-17T09:47:23.358Z,53.30
2018-06-17T09:49:28.748Z,53.60
2018-06-17T09:51:34.130Z,53.60
2018-06-17T09:53:39.058Z,53.60
2018-06-17T09:55:43.864Z,53.10
2018-06-17T09:57:49.911Z,53.20
2018-06-17T09:59:54.581Z,52.90
2018-06-17T10:02:00.435Z,52.60
2018-06-17T10:06:09.574Z,52.00
2018-06-17T10:08:14.273Z,51.60
2018-06-17T10:10:53.494Z,51.20
2018-06-17T10:12:58.824Z,51.00
2018-06-17T10:15:03.425Z,51.00
2018-06-17T10:17:09.240Z,50.90
2018-06-17T10:19:13.880Z,51.20
2018-06-17T10:21:18.401Z,50.90
2018-06-17T10:23:31.569Z,51.20
2018-06-17T10:25:36.422Z,51.30
2018-06-17T10:27:41.194Z,51.40
2018-06-17T10:29:46.025Z,51.40
2018-06-17T10:31:51.197Z,51.60
2018-06-17T10:33:55.821Z,51.40
2018-06-17T10:36:01.454Z,51.20
2018-06-17T10:38:06.647Z,51.00
2018-06-17T10:40:11.162Z,51.00
2018-06-17T10:42:16.345Z,51.60
2018-06-17T10:44:21.046Z,51.80
2018-06-17T10:46:25.465Z,50.80
2018-06-17T10:48:30.926Z,50.60
2018-06-17T10:50:35.465Z,50.20
2018-06-17T10:52:41.326Z,50.10
2018-06-17T10:54:45.802Z,50.40
2018-06-17T10:56:50.267Z,50.40
2018-06-17T10:58:54.687Z,50.60
2018-06-17T11:03:03.486Z,50.50
2018-06-17T11:05:09.170Z,50.30
2018-06-17T11:07:13.606Z,50.10
2018-06-17T11:09:18.068Z,49.90
2018-06-17T11:11:22.473Z,50.00
2018-06-17T11:13:26.982Z,49.60
2018-06-17T11:15:31.410Z,50.00
2018-06-17T11:17:35.955Z,49.60
2018-06-17T11:21:44.718Z,50.10
2018-06-17T11:25:54.423Z,49.50
2018-06-17T11:27:58.965Z,49.20
2018-06-17T11:32:07.622Z,49.40
2018-06-17T11:34:12.044Z,49.20
2018-06-17T11:36:16.556Z,49.50
2018-06-17T11:38:21.029Z,49.10
2018-06-17T11:40:25.522Z,48.80
2018-06-17T11:42:30.573Z,49.00
2018-06-17T11:44:35.036Z,48.70
2018-06-17T11:46:39.495Z,48.50
2018-06-17T11:48:44.699Z,49.20
2018-06-17T11:50:49.131Z,49.30
2018-06-17T11:52:55.445Z,49.50
2018-06-17T11:55:04.333Z,49.60
2018-06-17T11:57:12.446Z,50.10
2018-06-17T11:59:22.636Z,48.90
2018-06-17T12:01:38.938Z,48.50
2018-06-17T12:03:46.591Z,48.50
2018-06-17T12:05:58.454Z,48.80
2018-06-17T12:08:07.838Z,48.80
2018-06-17T12:10:12.767Z,48.50
2018-06-17T12:12:18.642Z,48.00
2018-06-17T12:14:23.123Z,48.00
2018-06-17T12:16:30.900Z,48.00
2018-06-17T12:18:43.722Z,48.00
2018-06-17T12:20:50.984Z,48.20
2018-06-17T12:22:58.551Z,48.40
2018-06-17T12:25:05.499Z,47.90
2018-06-17T12:27:10.229Z,48.30
2018-06-17T12:29:15.291Z,48.20
2018-06-17T12:31:19.707Z,48.50
2018-06-17T12:35:29.881Z,48.60
2018-06-17T12:37:34.626Z,48.50
2018-06-17T12:39:39.534Z,48.50
2018-06-17T12:41:45.418Z,48.40
2018-06-17T12:43:50.239Z,48.40
2018-06-17T12:45:54.725Z,48.20
2018-06-17T12:47:59.170Z,47.90
2018-06-17T12:50:04.274Z,47.80
2018-06-17T12:52:09.062Z,48.10
2018-06-17T12:54:13.531Z,47.80
2018-06-17T12:56:18.934Z,47.90
2018-06-17T12:58:24.569Z,48.00
2018-06-17T13:00:29.003Z,48.10
2018-06-17T13:02:33.806Z,47.70
2018-06-17T13:04:38.309Z,47.90
2018-06-17T13:06:43.364Z,47.50
2018-06-17T13:08:48.272Z,47.50
2018-06-17T13:10:52.927Z,47.00
2018-06-17T13:12:57.735Z,48.00
2018-06-17T13:15:02.965Z,47.60
2018-06-17T13:17:08.603Z,47.80
2018-06-17T13:19:13.295Z,47.30
2018-06-17T13:21:18.339Z,47.10
2018-06-17T13:23:23.303Z,47.50
2018-06-17T13:25:27.989Z,47.50
2018-06-17T13:27:33.014Z,47.50
2018-06-17T13:31:43.050Z,48.10
2018-06-17T13:33:47.990Z,47.60
2018-06-17T13:35:52.510Z,47.40
2018-06-17T13:37:57.562Z,47.30
2018-06-17T13:42:06.954Z,46.80
2018-06-17T13:44:12.619Z,46.60
2018-06-17T13:46:17.970Z,46.40
2018-06-17T13:48:23.251Z,46.60
2018-06-17T13:50:27.821Z,45.90
2018-06-17T13:52:33.388Z,46.20
2018-06-17T13:54:37.843Z,46.30
2018-06-17T13:56:42.571Z,46.30
2018-06-17T13:58:47.506Z,46.30
2018-06-17T14:00:52.463Z,46.30
2018-06-17T14:02:58.362Z,45.80
2018-06-17T14:05:05.477Z,45.80
2018-06-17T14:07:10.263Z,46.00
2018-06-17T14:09:14.974Z,45.20
2018-06-17T14:11:20.226Z,45.50
2018-06-17T14:13:25.161Z,45.80
2018-06-17T14:15:29.889Z,45.70
2018-06-17T14:17:34.584Z,45.90
2018-06-17T14:19:39.107Z,45.00
2018-06-17T14:21:44.185Z,45.00
2018-06-17T14:23:48.717Z,45.40
2018-06-17T14:25:53.828Z,45.50
2018-06-17T14:27:58.383Z,45.80
2018-06-17T14:30:04.021Z,45.90
2018-06-17T14:32:10.075Z,45.50
2018-06-17T14:34:14.675Z,45.10
2018-06-17T14:36:19.071Z,45.10
2018-06-17T14:38:24.621Z,45.10
2018-06-17T14:40:29.161Z,45.00
2018-06-17T14:42:38.860Z,45.10
2018-06-17T14:46:59.095Z,44.90
2018-06-17T14:51:19.556Z,44.70
2018-06-17T14:53:24.847Z,44.50
2018-06-17T14:55:29.310Z,44.40
2018-06-17T14:57:37.953Z,44.40
2018-06-17T14:59:42.581Z,43.60
2018-06-17T15:03:51.345Z,43.70
2018-06-17T15:05:55.767Z,44.00
2018-06-17T15:08:00.189Z,43.60
2018-06-17T15:10:05.144Z,43.70
2018-06-17T15:12:09.680Z,44.20
2018-06-17T15:14:14.716Z,43.60
2018-06-17T15:16:19.552Z,43.20
2018-06-17T15:18:25.125Z,42.80
2018-06-17T15:20:29.595Z,42.70
2018-06-17T15:22:34.111Z,43.00
2018-06-17T15:24:38.524Z,42.80
2018-06-17T15:26:42.973Z,43.00
2018-06-17T15:28:47.408Z,42.90
2018-06-17T15:30:51.878Z,42.90
2018-06-17T15:33:01.567Z,43.10
2018-06-17T15:35:11.349Z,43.10
2018-06-17T15:37:20.881Z,43.60
2018-06-17T15:39:30.602Z,43.10
2018-06-17T15:41:35.183Z,43.00
2018-06-17T15:43:39.670Z,42.80
2018-06-17T15:47:50.291Z,42.70
2018-06-17T15:49:54.737Z,42.60
2018-06-17T15:51:59.161Z,42.40
2018-06-17T15:54:03.573Z,42.60
2018-06-17T15:56:08.006Z,42.60
2018-06-17T15:58:12.494Z,42.60
2018-06-17T16:00:17.746Z,42.70
2018-06-17T16:02:22.811Z,42.70
2018-06-17T16:04:27.222Z,42.40
2018-06-17T16:06:31.680Z,42.70
2018-06-17T16:08:36.138Z,43.20
2018-06-17T16:10:40.689Z,42.60
2018-06-17T16:12:50.789Z,42.10
2018-06-17T16:15:00.429Z,42.10
2018-06-17T16:17:10.947Z,42.20
2018-06-17T16:19:20.790Z,42.30
2018-06-17T16:21:25.745Z,42.20
2018-06-17T16:23:31.431Z,42.30
2018-06-17T16:25:35.941Z,42.50
2018-06-17T16:27:40.403Z,42.50
2018-06-17T16:29:45.734Z,42.40
2018-06-17T16:31:50.271Z,42.40
2018-06-17T16:33:54.798Z,42.50
2018-06-17T16:35:59.300Z,42.50
2018-06-17T16:38:03.765Z,42.10
2018-06-17T16:40:09.161Z,42.30
2018-06-17T16:42:13.643Z,42.20
2018-06-17T16:44:18.079Z,41.90
2018-06-17T16:48:27.041Z,41.90
2018-06-17T16:50:31.545Z,41.50
2018-06-17T16:52:41.307Z,41.50
2018-06-17T16:57:00.701Z,41.60
2018-06-17T16:59:12.278Z,41.60
2018-06-17T17:01:17.330Z,41.80
2018-06-17T17:03:21.739Z,41.50
2018-06-17T17:05:26.213Z,42.00
2018-06-17T17:07:30.720Z,41.90
2018-06-17T17:09:35.187Z,41.90
2018-06-17T17:11:40.558Z,41.90
2018-06-17T17:13:46.089Z,41.40
2018-06-17T17:15:50.543Z,41.60
2018-06-17T17:17:55.088Z,41.50
2018-06-17T17:19:59.567Z,41.80
2018-06-17T17:22:04.013Z,41.80
2018-06-17T17:24:08.446Z,42.20
2018-06-17T17:26:12.904Z,42.00
2018-06-17T17:30:21.478Z,42.20
2018-06-17T17:32:31.347Z,42.50
2018-06-17T17:34:41.561Z,42.80
2018-06-17T17:36:51.571Z,42.60
2018-06-17T17:39:01.252Z,42.80
2018-06-17T17:41:06.863Z,42.70
2018-06-17T17:43:11.336Z,42.00
2018-06-17T17:45:16.690Z,42.70
2018-06-17T17:47:22.466Z,42.80
2018-06-17T17:49:26.910Z,43.40
2018-06-17T17:51:31.372Z,43.30
2018-06-17T17:53:35.857Z,43.10
2018-06-17T17:55:40.315Z,43.20
2018-06-17T17:57:44.788Z,43.60
2018-06-17T17:59:49.213Z,43.20
2018-06-17T18:01:55.787Z,43.00
2018-06-17T18:04:03.120Z,43.40
2018-06-17T18:06:07.651Z,43.10
2018-06-17T18:08:12.352Z,43.10
2018-06-17T18:10:16.873Z,43.20
2018-06-17T18:12:25.118Z,43.60
2018-06-17T18:14:30.281Z,43.50
2018-06-17T18:16:34.815Z,43.80
2018-06-17T18:18:39.422Z,43.70
2018-06-17T18:20:44.969Z,43.90
2018-06-17T18:22:50.074Z,44.60
2018-06-17T18:25:00.344Z,44.10
2018-06-17T18:27:12.439Z,44.20
2018-06-17T18:29:22.946Z,44.70
2018-06-17T18:31:27.926Z,44.90
2018-06-17T18:33:38.844Z,45.30
2018-06-17T18:35:51.055Z,45.70
2018-06-17T18:37:58.326Z,45.40
2018-06-17T18:40:02.908Z,45.30
2018-06-17T18:44:13.997Z,45.30
2018-06-17T18:46:19.247Z,45.10
2018-06-17T18:48:23.805Z,45.40
2018-06-17T18:50:28.641Z,45.30
2018-06-17T18:52:33.050Z,45.40
2018-06-17T18:54:37.595Z,45.60
2018-06-17T18:56:42.280Z,46.10
2018-06-17T18:58:47.824Z,46.20
2018-06-17T19:00:52.837Z,46.10
2018-06-17T19:02:57.871Z,46.20
2018-06-17T19:05:02.567Z,46.20
2018-06-17T19:07:07.910Z,46.20
2018-06-17T19:09:17.807Z,47.40
2018-06-17T19:11:27.781Z,47.30
2018-06-17T19:13:37.625Z,47.40
2018-06-17T19:15:47.271Z,47.60
2018-06-17T19:17:57.435Z,47.40
2018-06-17T19:20:01.973Z,47.10
2018-06-17T19:22:07.206Z,47.30
2018-06-17T19:24:12.277Z,47.40
2018-06-17T19:26:17.463Z,47.60
2018-06-17T19:28:23.772Z,47.70
2018-06-17T19:30:28.338Z,47.70
2018-06-17T19:32:33.025Z,47.90
2018-06-17T19:34:37.839Z,48.00
2018-06-17T19:36:42.407Z,48.30
2018-06-17T19:38:48.359Z,48.30
2018-06-17T19:40:52.927Z,48.50
2018-06-17T19:42:57.795Z,48.40
2018-06-17T19:45:02.604Z,49.50
2018-06-17T19:47:08.471Z,48.90
2018-06-17T19:49:14.005Z,48.90
2018-06-17T19:51:23.930Z,49.10
2018-06-17T19:53:33.796Z,49.30
2018-06-17T19:57:54.025Z,49.30
2018-06-17T20:00:03.832Z,49.50
2018-06-17T20:02:09.061Z,49.60
2018-06-17T20:04:13.606Z,49.70
2018-06-17T20:06:18.231Z,49.70
2018-06-17T20:08:22.607Z,49.90
2018-06-17T20:10:28.410Z,49.80
2018-06-17T20:12:32.968Z,49.90
2018-06-17T20:16:42.072Z,50.30
2018-06-17T20:18:47.810Z,50.30
2018-06-17T20:23:31.903Z,50.60
2018-06-17T20:25:36.983Z,50.60
2018-06-17T20:27:41.959Z,50.70
2018-06-17T20:29:46.851Z,50.90
2018-06-17T20:31:56.937Z,51.00
2018-06-17T20:34:06.905Z,51.10
2018-06-17T20:37:16.034Z,51.20
2018-06-17T20:39:25.927Z,51.40
2018-06-17T20:41:35.648Z,51.30
2018-06-17T20:43:46.831Z,51.50
2018-06-17T20:45:51.515Z,51.80
2018-06-17T20:47:56.163Z,52.10
2018-06-17T20:50:00.943Z,52.20
2018-06-17T20:52:05.861Z,52.30
2018-06-17T20:54:10.476Z,52.30
2018-06-17T20:56:15.501Z,52.20
2018-06-17T20:58:20.144Z,52.20
2018-06-17T21:00:24.998Z,52.20
2018-06-17T21:02:29.648Z,52.30
2018-06-17T21:04:35.326Z,52.30
2018-06-17T21:06:39.884Z,52.40
2018-06-17T21:08:44.459Z,52.50
2018-06-17T21:10:49.048Z,52.60
2018-06-17T21:12:53.679Z,52.80
2018-06-17T21:14:58.280Z,53.00
2018-06-17T21:17:02.824Z,52.90
2018-06-17T21:19:12.573Z,53.00
2018-06-17T21:21:22.440Z,53.20
2018-06-17T21:27:45.623Z,53.30
2018-06-17T21:29:50.217Z,53.00
2018-06-17T21:31:54.765Z,53.10
2018-06-17T21:33:59.275Z,54.10
2018-06-17T21:36:03.930Z,53.50
2018-06-17T21:38:08.969Z,53.50
2018-06-17T21:40:13.642Z,53.80
2018-06-17T21:42:18.193Z,53.70
2018-06-17T21:44:22.764Z,53.90
2018-06-17T21:46:27.300Z,54.60
2018-06-17T21:48:33.940Z,54.10
2018-06-17T21:52:42.091Z,54.30
2018-06-17T21:54:46.534Z,54.20
2018-06-17T21:56:50.920Z,54.30
2018-06-17T21:58:55.285Z,54.30
2018-06-17T22:00:59.883Z,54.30
2018-06-17T22:03:05.363Z,54.60
2018-06-17T22:05:10.558Z,54.50
2018-06-17T22:07:16.663Z,54.50
2018-06-17T22:09:26.208Z,54.50
2018-06-17T22:11:35.870Z,54.60
2018-06-17T22:13:45.412Z,54.80
2018-06-17T22:15:54.925Z,54.90
2018-06-17T22:17:59.315Z,54.90
2018-06-17T22:20:03.778Z,55.00
2018-06-17T22:22:09.458Z,55.10
2018-06-17T22:24:13.844Z,55.20
2018-06-17T22:28:22.340Z,55.40
2018-06-17T22:30:26.813Z,55.30
2018-06-17T22:32:31.201Z,55.40
2018-06-17T22:34:35.602Z,55.50
2018-06-17T22:36:40.017Z,55.50
2018-06-17T22:38:44.439Z,56.20
2018-06-17T22:40:49.446Z,55.70
2018-06-17T22:42:53.845Z,56.60
2018-06-17T22:44:58.413Z,55.90
2018-06-17T22:47:02.843Z,55.70
2018-06-17T22:49:07.250Z,55.80
2018-06-17T22:51:11.690Z,55.90
2018-06-17T22:53:32.918Z,55.90
2018-06-17T22:55:37.327Z,55.90
2018-06-17T22:57:47.026Z,55.80
2018-06-17T22:59:56.619Z,56.10
2018-06-17T23:02:06.407Z,56.10
2018-06-17T23:04:16.124Z,56.20
2018-06-17T23:06:25.897Z,56.20
2018-06-17T23:08:38.119Z,56.90
2018-06-17T23:10:49.720Z,56.20
2018-06-17T23:12:55.742Z,56.40
2018-06-17T23:15:02.355Z,56.60
2018-06-17T23:17:06.775Z,56.70
2018-06-17T23:19:11.179Z,56.70
2018-06-17T23:21:15.569Z,56.70
2018-06-17T23:23:20.053Z,56.70
2018-06-17T23:25:24.450Z,56.80
2018-06-17T23:27:30.060Z,57.50
2018-06-17T23:29:34.475Z,57.00
2018-06-17T23:31:38.963Z,57.10
2018-06-17T23:33:43.392Z,57.00
2018-06-17T23:35:47.940Z,56.30
2018-06-17T23:37:52.442Z,56.80
2018-06-17T23:39:56.845Z,57.00
2018-06-17T23:42:01.987Z,56.90
2018-06-17T23:44:06.394Z,57.60
2018-06-17T23:46:16.011Z,57.10
2018-06-17T23:48:25.522Z,57.20
2018-06-17T23:50:35.369Z,57.30
2018-06-17T23:52:45.154Z,57.80
2018-06-17T23:54:55.794Z,57.40
2018-06-17T23:57:00.262Z,57.50
2018-06-17T23:59:04.649Z,57.40
